createdAt,value
2022-12-18T00:00:43.527Z,1027.92
2022-12-18T00:01:43.626Z,1027.94
2022-12-18T00:02:43.565Z,1027.96
2022-12-18T00:03:44.013Z,1027.97
2022-12-18T00:04:43.543Z,1028.00
2022-12-18T00:05:43.490Z,1028.02
2022-12-18T00:06:43.498Z,1028.06
2022-12-18T00:07:43.461Z,1028.08
2022-12-18T00:08:43.464Z,1028.12
2022-12-18T00:09:43.741Z,1028.12
2022-12-18T00:10:43.411Z,1028.11
2022-12-18T00:11:43.418Z,1028.11
2022-12-18T00:12:43.421Z,1028.11
2022-12-18T00:13:43.414Z,1028.13
2022-12-18T00:14:43.377Z,1028.11
2022-12-18T00:15:43.453Z,1028.15
2022-12-18T00:16:43.414Z,1028.15
2022-12-18T00:17:43.367Z,1028.16
2022-12-18T00:18:43.371Z,1028.15
2022-12-18T00:19:43.321Z,1028.15
2022-12-18T00:20:43.340Z,1028.12
2022-12-18T00:21:43.363Z,1028.12
2022-12-18T00:22:43.306Z,1028.09
2022-12-18T00:23:43.631Z,1028.09
2022-12-18T00:24:43.280Z,1028.08
2022-12-18T00:25:43.258Z,1028.10
2022-12-18T00:26:43.286Z,1028.08
2022-12-18T00:27:43.264Z,1028.07
2022-12-18T00:28:43.331Z,1028.05
2022-12-18T00:29:43.232Z,1028.03
2022-12-18T00:30:43.264Z,1028.02
2022-12-18T00:31:43.318Z,1028.03
2022-12-18T00:32:43.226Z,1028.04
2022-12-18T00:33:43.184Z,1028.05
2022-12-18T00:34:43.177Z,1028.05
2022-12-18T00:35:43.181Z,1028.05
2022-12-18T00:36:43.196Z,1028.05
2022-12-18T00:37:43.148Z,1028.07
2022-12-18T00:38:43.167Z,1028.06
2022-12-18T00:39:43.135Z,1028.06
2022-12-18T00:40:43.142Z,1028.03
2022-12-18T00:41:43.104Z,1028.01
2022-12-18T00:42:43.119Z,1028.03
2022-12-18T00:43:43.226Z,1028.02
2022-12-18T00:44:43.076Z,1028.04
2022-12-18T00:45:49.924Z,1028.04
2022-12-18T00:46:43.792Z,1028.04
2022-12-18T00:47:43.685Z,1028.01
2022-12-18T00:48:43.063Z,1028.00
2022-12-18T00:49:43.030Z,1027.99
2022-12-18T00:50:43.015Z,1028.00
2022-12-18T00:51:43.027Z,1028.00
2022-12-18T00:52:43.025Z,1027.99
2022-12-18T00:53:42.993Z,1027.98
2022-12-18T00:54:42.977Z,1027.96
2022-12-18T00:55:42.997Z,1027.94
2022-12-18T00:56:49.270Z,1027.92
2022-12-18T00:57:42.967Z,1027.89
2022-12-18T00:58:42.971Z,1027.89
2022-12-18T00:59:42.931Z,1027.85
2022-12-18T01:00:42.981Z,1027.85
2022-12-18T01:01:43.103Z,1027.85
2022-12-18T01:02:43.149Z,1027.86
2022-12-18T01:03:42.914Z,1027.86
2022-12-18T01:04:42.892Z,1027.85
2022-12-18T01:05:42.882Z,1027.88
2022-12-18T01:06:42.863Z,1027.89
2022-12-18T01:07:42.871Z,1027.90
2022-12-18T01:08:42.848Z,1027.92
2022-12-18T01:09:42.851Z,1027.93
2022-12-18T01:10:42.829Z,1027.95
2022-12-18T01:11:42.843Z,1027.97
2022-12-18T01:12:42.808Z,1028.01
2022-12-18T01:13:42.822Z,1028.03
2022-12-18T01:14:42.788Z,1028.05
2022-12-18T01:15:42.786Z,1028.03
2022-12-18T01:16:42.888Z,1028.03
2022-12-18T01:17:42.763Z,1028.05
2022-12-18T01:18:42.757Z,1028.03
2022-12-18T01:19:42.753Z,1028.05
2022-12-18T01:20:42.732Z,1028.08
2022-12-18T01:21:42.771Z,1028.12
2022-12-18T01:22:42.709Z,1028.16
2022-12-18T01:23:42.881Z,1028.19
2022-12-18T01:24:42.687Z,1028.18
2022-12-18T01:25:42.685Z,1028.20
2022-12-18T01:26:42.730Z,1028.21
2022-12-18T01:27:42.681Z,1028.25
2022-12-18T01:28:42.647Z,1028.24
2022-12-18T01:29:42.643Z,1028.27
2022-12-18T01:30:42.641Z,1028.28
2022-12-18T01:31:42.752Z,1028.31
2022-12-18T01:32:42.609Z,1028.29
2022-12-18T01:33:42.602Z,1028.30
2022-12-18T01:34:42.594Z,1028.29
2022-12-18T01:35:42.585Z,1028.29
2022-12-18T01:36:42.580Z,1028.29
2022-12-18T01:37:42.633Z,1028.29
2022-12-18T01:38:42.560Z,1028.28
2022-12-18T01:39:42.547Z,1028.28
2022-12-18T01:40:42.538Z,1028.27
2022-12-18T01:41:42.536Z,1028.27
2022-12-18T01:42:42.543Z,1028.28
2022-12-18T01:43:42.515Z,1028.27
2022-12-18T01:44:42.490Z,1028.27
2022-12-18T01:45:42.568Z,1028.28
2022-12-18T01:46:42.496Z,1028.29
2022-12-18T01:47:42.486Z,1028.29
2022-12-18T01:48:42.464Z,1028.29
2022-12-18T01:49:42.449Z,1028.28
2022-12-18T01:50:42.435Z,1028.28
2022-12-18T01:51:42.450Z,1028.28
2022-12-18T01:52:42.419Z,1028.26
2022-12-18T01:53:42.412Z,1028.25
2022-12-18T01:54:42.408Z,1028.24
2022-12-18T01:55:42.394Z,1028.24
2022-12-18T01:56:42.551Z,1028.27
2022-12-18T01:57:42.386Z,1028.27
2022-12-18T01:58:42.361Z,1028.29
2022-12-18T01:59:42.351Z,1028.32
2022-12-18T02:00:42.375Z,1028.34
2022-12-18T02:01:42.493Z,1028.35
2022-12-18T02:02:42.436Z,1028.34
2022-12-18T02:03:42.475Z,1028.34
2022-12-18T02:04:47.795Z,1028.34
2022-12-18T02:05:42.327Z,1028.34
2022-12-18T02:06:42.336Z,1028.34
2022-12-18T02:07:42.281Z,1028.36
2022-12-18T02:08:42.270Z,1028.36
2022-12-18T02:09:42.255Z,1028.36
2022-12-18T02:10:42.246Z,1028.36
2022-12-18T02:11:42.252Z,1028.36
2022-12-18T02:12:42.223Z,1028.37
2022-12-18T02:13:42.239Z,1028.37
2022-12-18T02:14:42.263Z,1028.39
2022-12-18T02:15:42.224Z,1028.38
2022-12-18T02:16:42.270Z,1028.41
2022-12-18T02:17:42.237Z,1028.40
2022-12-18T02:18:42.169Z,1028.40
2022-12-18T02:19:42.162Z,1028.41
2022-12-18T02:20:42.166Z,1028.41
2022-12-18T02:21:42.166Z,1028.40
2022-12-18T02:22:42.127Z,1028.39
2022-12-18T02:23:42.313Z,1028.37
2022-12-18T02:24:42.113Z,1028.35
2022-12-18T02:25:42.110Z,1028.38
2022-12-18T02:26:42.139Z,1028.38
2022-12-18T02:27:42.080Z,1028.37
2022-12-18T02:28:42.076Z,1028.37
2022-12-18T02:29:42.062Z,1028.36
2022-12-18T02:30:42.109Z,1028.37
2022-12-18T02:31:42.053Z,1028.41
2022-12-18T02:32:42.029Z,1028.46
2022-12-18T02:33:42.253Z,1028.45
2022-12-18T02:34:42.009Z,1028.50
2022-12-18T02:35:42.004Z,1028.50
2022-12-18T02:36:41.993Z,1028.52
2022-12-18T02:37:41.986Z,1028.50
2022-12-18T02:38:41.980Z,1028.52
2022-12-18T02:39:41.962Z,1028.51
2022-12-18T02:40:41.972Z,1028.52
2022-12-18T02:41:41.960Z,1028.54
2022-12-18T02:42:41.934Z,1028.55
2022-12-18T02:43:42.047Z,1028.56
2022-12-18T02:44:41.912Z,1028.55
2022-12-18T02:45:41.969Z,1028.57
2022-12-18T02:46:41.932Z,1028.58
2022-12-18T02:47:41.890Z,1028.60
2022-12-18T02:48:41.880Z,1028.63
2022-12-18T02:49:41.871Z,1028.64
2022-12-18T02:50:41.899Z,1028.67
2022-12-18T02:51:41.867Z,1028.69
2022-12-18T02:52:41.907Z,1028.72
2022-12-18T02:53:42.158Z,1028.74
2022-12-18T02:54:41.822Z,1028.75
2022-12-18T02:55:41.822Z,1028.75
2022-12-18T02:56:41.807Z,1028.75
2022-12-18T02:57:41.793Z,1028.74
2022-12-18T02:58:41.789Z,1028.71
2022-12-18T02:59:41.770Z,1028.69
2022-12-18T03:00:41.764Z,1028.67
2022-12-18T03:01:41.879Z,1028.65
2022-12-18T03:02:41.949Z,1028.65
2022-12-18T03:03:42.182Z,1028.64
2022-12-18T03:04:41.733Z,1028.64
2022-12-18T03:05:41.720Z,1028.64
2022-12-18T03:06:41.722Z,1028.62
2022-12-18T03:07:41.764Z,1028.63
2022-12-18T03:08:41.676Z,1028.61
2022-12-18T03:09:41.678Z,1028.63
2022-12-18T03:10:41.674Z,1028.64
2022-12-18T03:11:41.693Z,1028.65
2022-12-18T03:12:41.636Z,1028.66
2022-12-18T03:13:42.026Z,1028.67
2022-12-18T03:14:41.622Z,1028.67
2022-12-18T03:15:41.618Z,1028.65
2022-12-18T03:16:41.680Z,1028.64
2022-12-18T03:17:41.595Z,1028.64
2022-12-18T03:18:41.583Z,1028.65
2022-12-18T03:19:41.579Z,1028.66
2022-12-18T03:20:41.559Z,1028.70
2022-12-18T03:21:41.581Z,1028.72
2022-12-18T03:22:41.554Z,1028.73
2022-12-18T03:23:41.848Z,1028.72
2022-12-18T03:24:41.526Z,1028.72
2022-12-18T03:25:41.523Z,1028.70
2022-12-18T03:26:41.510Z,1028.70
2022-12-18T03:27:41.533Z,1028.70
2022-12-18T03:28:41.489Z,1028.70
2022-12-18T03:29:41.486Z,1028.69
2022-12-18T03:30:41.512Z,1028.70
2022-12-18T03:31:41.464Z,1028.70
2022-12-18T03:32:41.471Z,1028.71
2022-12-18T03:33:41.865Z,1028.71
2022-12-18T03:34:41.438Z,1028.73
2022-12-18T03:35:41.426Z,1028.74
2022-12-18T03:36:41.413Z,1028.76
2022-12-18T03:37:41.465Z,1028.75
2022-12-18T03:38:41.399Z,1028.74
2022-12-18T03:39:41.388Z,1028.73
2022-12-18T03:40:41.385Z,1028.70
2022-12-18T03:41:41.367Z,1028.68
2022-12-18T03:42:41.367Z,1028.67
2022-12-18T03:43:41.940Z,1028.66
2022-12-18T03:44:41.338Z,1028.64
2022-12-18T03:45:41.367Z,1028.65
2022-12-18T03:46:41.342Z,1028.63
2022-12-18T03:47:41.333Z,1028.63
2022-12-18T03:48:41.326Z,1028.63
2022-12-18T03:49:41.298Z,1028.64
2022-12-18T03:50:41.273Z,1028.65
2022-12-18T03:51:41.290Z,1028.66
2022-12-18T03:52:41.267Z,1028.70
2022-12-18T03:53:41.800Z,1028.72
2022-12-18T03:54:41.234Z,1028.74
2022-12-18T03:55:41.230Z,1028.76
2022-12-18T03:56:41.239Z,1028.80
2022-12-18T03:57:41.281Z,1028.79
2022-12-18T03:58:41.597Z,1028.82
2022-12-18T03:59:41.193Z,1028.81
2022-12-18T04:00:41.188Z,1028.81
2022-12-18T04:01:41.253Z,1028.80
2022-12-18T04:02:41.320Z,1028.80
2022-12-18T04:03:41.510Z,1028.79
2022-12-18T04:04:41.144Z,1028.79
2022-12-18T04:05:41.150Z,1028.78
2022-12-18T04:06:41.132Z,1028.75
2022-12-18T04:07:41.146Z,1028.75
2022-12-18T04:08:41.102Z,1028.74
2022-12-18T04:09:41.111Z,1028.72
2022-12-18T04:10:41.080Z,1028.71
2022-12-18T04:11:41.076Z,1028.72
2022-12-18T04:12:41.091Z,1028.74
2022-12-18T04:13:41.579Z,1028.75
2022-12-18T04:14:41.043Z,1028.77
2022-12-18T04:15:41.064Z,1028.78
2022-12-18T04:16:41.053Z,1028.76
2022-12-18T04:17:41.109Z,1028.74
2022-12-18T04:18:41.011Z,1028.75
2022-12-18T04:19:41.021Z,1028.75
2022-12-18T04:20:40.999Z,1028.78
2022-12-18T04:21:40.992Z,1028.79
2022-12-18T04:22:40.983Z,1028.81
2022-12-18T04:23:41.463Z,1028.84
2022-12-18T04:24:40.954Z,1028.88
2022-12-18T04:25:40.944Z,1028.92
2022-12-18T04:26:40.937Z,1028.95
2022-12-18T04:27:40.984Z,1028.99
2022-12-18T04:28:40.914Z,1028.98
2022-12-18T04:29:40.904Z,1028.99
2022-12-18T04:30:41.047Z,1029.01
2022-12-18T04:31:40.900Z,1029.01
2022-12-18T04:32:40.911Z,1028.99
2022-12-18T04:33:41.285Z,1028.97
2022-12-18T04:34:40.871Z,1028.94
2022-12-18T04:35:40.866Z,1028.90
2022-12-18T04:36:40.842Z,1028.88
2022-12-18T04:37:40.842Z,1028.87
2022-12-18T04:38:40.836Z,1028.87
2022-12-18T04:39:40.827Z,1028.88
2022-12-18T04:40:41.419Z,1028.92
2022-12-18T04:41:40.799Z,1028.95
2022-12-18T04:42:40.838Z,1028.98
2022-12-18T04:43:41.275Z,1029.01
2022-12-18T04:44:40.760Z,1029.03
2022-12-18T04:45:40.762Z,1029.04
2022-12-18T04:46:40.854Z,1029.05
2022-12-18T04:47:40.785Z,1029.05
2022-12-18T04:48:40.720Z,1029.05
2022-12-18T04:49:40.733Z,1029.06
2022-12-18T04:50:40.726Z,1029.08
2022-12-18T04:51:40.695Z,1029.06
2022-12-18T04:52:40.690Z,1029.02
2022-12-18T04:53:41.309Z,1028.98
2022-12-18T04:54:40.666Z,1028.94
2022-12-18T04:55:40.665Z,1028.90
2022-12-18T04:56:40.645Z,1028.89
2022-12-18T04:57:40.636Z,1028.92
2022-12-18T04:58:40.654Z,1028.94
2022-12-18T04:59:40.627Z,1028.99
2022-12-18T05:00:40.637Z,1029.03
2022-12-18T05:01:40.718Z,1029.06
2022-12-18T05:02:40.767Z,1029.07
2022-12-18T05:03:40.883Z,1029.07
2022-12-18T05:04:40.568Z,1029.07
2022-12-18T05:05:40.551Z,1029.09
2022-12-18T05:06:40.552Z,1029.07
2022-12-18T05:07:40.581Z,1029.04
2022-12-18T05:08:40.571Z,1029.02
2022-12-18T05:09:40.536Z,1029.02
2022-12-18T05:10:40.536Z,1029.02
2022-12-18T05:11:40.533Z,1029.03
2022-12-18T05:12:40.532Z,1029.04
2022-12-18T05:13:41.122Z,1029.07
2022-12-18T05:14:40.474Z,1029.05
2022-12-18T05:15:40.541Z,1029.07
2022-12-18T05:16:40.481Z,1029.07
2022-12-18T05:17:40.437Z,1029.09
2022-12-18T05:18:40.458Z,1029.14
2022-12-18T05:19:40.426Z,1029.19
2022-12-18T05:20:40.427Z,1029.21
2022-12-18T05:21:40.421Z,1029.20
2022-12-18T05:22:40.407Z,1029.21
2022-12-18T05:23:41.342Z,1029.22
2022-12-18T05:24:40.374Z,1029.24
2022-12-18T05:25:40.372Z,1029.26
2022-12-18T05:26:40.356Z,1029.27
2022-12-18T05:27:40.345Z,1029.30
2022-12-18T05:28:40.355Z,1029.31
2022-12-18T05:29:40.324Z,1029.34
2022-12-18T05:30:40.318Z,1029.38
2022-12-18T05:31:40.418Z,1029.42
2022-12-18T05:32:40.322Z,1029.43
2022-12-18T05:33:40.618Z,1029.43
2022-12-18T05:34:40.280Z,1029.41
2022-12-18T05:35:40.264Z,1029.40
2022-12-18T05:36:40.275Z,1029.39
2022-12-18T05:37:43.297Z,1029.41
2022-12-18T05:38:40.250Z,1029.40
2022-12-18T05:39:40.238Z,1029.41
2022-12-18T05:40:40.229Z,1029.41
2022-12-18T05:41:40.209Z,1029.42
2022-12-18T05:42:40.221Z,1029.43
2022-12-18T05:43:40.696Z,1029.45
2022-12-18T05:44:40.184Z,1029.46
2022-12-18T05:45:40.184Z,1029.46
2022-12-18T05:46:40.213Z,1029.45
2022-12-18T05:47:40.172Z,1029.48
2022-12-18T05:48:40.168Z,1029.48
2022-12-18T05:49:40.143Z,1029.50
2022-12-18T05:50:40.151Z,1029.50
2022-12-18T05:51:40.112Z,1029.50
2022-12-18T05:52:40.149Z,1029.50
2022-12-18T05:53:40.659Z,1029.49
2022-12-18T05:54:40.090Z,1029.48
2022-12-18T05:55:40.076Z,1029.48
2022-12-18T05:56:44.155Z,1029.48
2022-12-18T05:57:40.111Z,1029.47
2022-12-18T05:58:40.207Z,1029.46
2022-12-18T05:59:40.033Z,1029.46
2022-12-18T06:00:40.034Z,1029.45
2022-12-18T06:01:40.111Z,1029.47
2022-12-18T06:02:40.091Z,1029.48
2022-12-18T06:03:40.553Z,1029.50
2022-12-18T06:04:40.010Z,1029.55
2022-12-18T06:05:39.979Z,1029.57
2022-12-18T06:06:39.990Z,1029.59
2022-12-18T06:07:39.979Z,1029.58
2022-12-18T06:08:45.864Z,1029.58
2022-12-18T06:09:39.945Z,1029.59
2022-12-18T06:10:39.940Z,1029.58
2022-12-18T06:11:39.922Z,1029.61
2022-12-18T06:12:39.936Z,1029.63
2022-12-18T06:13:40.454Z,1029.64
2022-12-18T06:14:39.906Z,1029.66
2022-12-18T06:15:39.914Z,1029.67
2022-12-18T06:16:39.965Z,1029.71
2022-12-18T06:17:39.904Z,1029.70
2022-12-18T06:18:39.855Z,1029.68
2022-12-18T06:19:39.857Z,1029.66
2022-12-18T06:20:39.847Z,1029.66
2022-12-18T06:21:39.823Z,1029.66
2022-12-18T06:22:39.828Z,1029.69
2022-12-18T06:23:40.183Z,1029.73
2022-12-18T06:24:39.794Z,1029.74
2022-12-18T06:25:39.801Z,1029.76
2022-12-18T06:26:39.776Z,1029.78
2022-12-18T06:27:39.795Z,1029.79
2022-12-18T06:28:39.756Z,1029.79
2022-12-18T06:29:39.755Z,1029.79
2022-12-18T06:30:39.745Z,1029.78
2022-12-18T06:31:39.808Z,1029.76
2022-12-18T06:32:39.740Z,1029.79
2022-12-18T06:33:40.062Z,1029.80
2022-12-18T06:34:39.701Z,1029.82
2022-12-18T06:35:39.703Z,1029.81
2022-12-18T06:36:39.635Z,1029.81
2022-12-18T06:37:39.689Z,1029.86
2022-12-18T06:38:40.074Z,1029.90
2022-12-18T06:39:39.647Z,1029.95
2022-12-18T06:40:39.641Z,1029.97
2022-12-18T06:41:39.637Z,1030.00
2022-12-18T06:42:39.668Z,1030.00
2022-12-18T06:43:40.044Z,1030.01
2022-12-18T06:44:39.607Z,1030.04
2022-12-18T06:45:39.653Z,1030.05
2022-12-18T06:46:39.542Z,1030.05
2022-12-18T06:47:39.540Z,1030.04
2022-12-18T06:48:39.543Z,1030.08
2022-12-18T06:49:39.518Z,1030.06
2022-12-18T06:50:39.513Z,1030.07
2022-12-18T06:51:39.509Z,1030.06
2022-12-18T06:52:39.524Z,1030.07
2022-12-18T06:53:39.811Z,1030.07
2022-12-18T06:54:39.505Z,1030.08
2022-12-18T06:55:39.447Z,1030.09
2022-12-18T06:56:39.445Z,1030.11
2022-12-18T06:57:39.471Z,1030.13
2022-12-18T06:58:39.430Z,1030.15
2022-12-18T06:59:39.406Z,1030.18
2022-12-18T07:00:39.419Z,1030.21
2022-12-18T07:01:39.626Z,1030.26
2022-12-18T07:02:39.541Z,1030.32
2022-12-18T07:03:39.886Z,1030.37
2022-12-18T07:04:39.383Z,1030.38
2022-12-18T07:05:39.349Z,1030.37
2022-12-18T07:06:39.361Z,1030.35
2022-12-18T07:07:39.337Z,1030.30
2022-12-18T07:08:39.350Z,1030.26
2022-12-18T07:09:39.337Z,1030.20
2022-12-18T07:10:44.748Z,1030.16
2022-12-18T07:11:39.316Z,1030.12
2022-12-18T07:12:39.293Z,1030.11
2022-12-18T07:13:39.573Z,1030.11
2022-12-18T07:14:39.276Z,1030.11
2022-12-18T07:15:39.270Z,1030.11
2022-12-18T07:16:39.260Z,1030.11
2022-12-18T07:17:39.241Z,1030.11
2022-12-18T07:18:39.263Z,1030.12
2022-12-18T07:19:39.220Z,1030.14
2022-12-18T07:20:39.244Z,1030.16
2022-12-18T07:21:39.223Z,1030.19
2022-12-18T07:22:39.223Z,1030.21
2022-12-18T07:23:39.456Z,1030.22
2022-12-18T07:24:39.180Z,1030.24
2022-12-18T07:25:39.160Z,1030.25
2022-12-18T07:26:39.152Z,1030.24
2022-12-18T07:27:39.162Z,1030.26
2022-12-18T07:28:39.166Z,1030.26
2022-12-18T07:29:39.120Z,1030.28
2022-12-18T07:30:39.114Z,1030.28
2022-12-18T07:31:39.173Z,1030.28
2022-12-18T07:32:39.104Z,1030.27
2022-12-18T07:33:39.577Z,1030.25
2022-12-18T07:34:39.104Z,1030.25
2022-12-18T07:35:39.091Z,1030.24
2022-12-18T07:36:39.066Z,1030.21
2022-12-18T07:37:39.060Z,1030.20
2022-12-18T07:38:39.068Z,1030.18
2022-12-18T07:39:39.079Z,1030.18
2022-12-18T07:40:39.034Z,1030.18
2022-12-18T07:41:43.745Z,1030.19
2022-12-18T07:42:39.022Z,1030.21
2022-12-18T07:43:39.441Z,1030.21
2022-12-18T07:44:39.017Z,1030.23
2022-12-18T07:45:39.017Z,1030.26
2022-12-18T07:46:39.002Z,1030.27
2022-12-18T07:47:38.950Z,1030.28
2022-12-18T07:48:38.967Z,1030.29
2022-12-18T07:49:38.936Z,1030.30
2022-12-18T07:50:38.921Z,1030.30
2022-12-18T07:51:38.917Z,1030.34
2022-12-18T07:52:38.922Z,1030.33
2022-12-18T07:53:39.427Z,1030.32
2022-12-18T07:54:38.912Z,1030.33
2022-12-18T07:56:05.361Z,1030.32
2022-12-18T07:56:38.874Z,1030.30
2022-12-18T07:57:50.733Z,1030.29
2022-12-18T07:58:38.899Z,1030.25
2022-12-18T07:59:38.862Z,1030.21
2022-12-18T08:00:38.841Z,1030.19
2022-12-18T08:01:38.935Z,1030.17
2022-12-18T08:02:38.919Z,1030.20
2022-12-18T08:03:39.177Z,1030.21
2022-12-18T08:04:38.798Z,1030.27
2022-12-18T08:05:38.791Z,1030.27
2022-12-18T08:06:38.786Z,1030.30
2022-12-18T08:07:38.767Z,1030.30
2022-12-18T08:08:38.794Z,1030.29
2022-12-18T08:09:38.766Z,1030.30
2022-12-18T08:10:38.745Z,1030.32
2022-12-18T08:11:38.716Z,1030.31
2022-12-18T08:12:38.720Z,1030.31
2022-12-18T08:13:39.179Z,1030.33
2022-12-18T08:14:38.711Z,1030.34
2022-12-18T08:15:38.688Z,1030.31
2022-12-18T08:16:38.708Z,1030.33
2022-12-18T08:17:38.675Z,1030.33
2022-12-18T08:18:38.679Z,1030.31
2022-12-18T08:19:38.695Z,1030.31
2022-12-18T08:20:38.651Z,1030.31
2022-12-18T08:21:38.623Z,1030.30
2022-12-18T08:22:38.652Z,1030.31
2022-12-18T08:23:42.545Z,1030.29
2022-12-18T08:24:38.625Z,1030.32
2022-12-18T08:25:38.612Z,1030.35
2022-12-18T08:26:38.588Z,1030.36
2022-12-18T08:27:38.571Z,1030.42
2022-12-18T08:28:38.582Z,1030.43
2022-12-18T08:29:38.573Z,1030.44
2022-12-18T08:30:38.607Z,1030.43
2022-12-18T08:31:38.618Z,1030.44
2022-12-18T08:32:38.573Z,1030.42
2022-12-18T08:33:39.057Z,1030.45
2022-12-18T08:34:38.540Z,1030.45
2022-12-18T08:35:44.066Z,1030.44
2022-12-18T08:36:38.505Z,1030.42
2022-12-18T08:37:38.474Z,1030.39
2022-12-18T08:38:38.516Z,1030.37
2022-12-18T08:39:38.454Z,1030.38
2022-12-18T08:40:38.481Z,1030.40
2022-12-18T08:41:38.444Z,1030.41
2022-12-18T08:42:38.422Z,1030.46
2022-12-18T08:43:38.870Z,1030.48
2022-12-18T08:44:38.423Z,1030.51
2022-12-18T08:45:38.404Z,1030.54
2022-12-18T08:46:38.442Z,1030.55
2022-12-18T08:47:38.402Z,1030.54
2022-12-18T08:48:38.470Z,1030.56
2022-12-18T08:49:38.356Z,1030.56
2022-12-18T08:50:38.356Z,1030.52
2022-12-18T08:51:38.356Z,1030.58
2022-12-18T08:52:38.333Z,1030.57
2022-12-18T08:53:38.848Z,1030.56
2022-12-18T08:54:38.325Z,1030.56
2022-12-18T08:55:38.319Z,1030.59
2022-12-18T08:56:38.296Z,1030.59
2022-12-18T08:57:38.296Z,1030.64
2022-12-18T08:58:38.298Z,1030.67
2022-12-18T08:59:38.295Z,1030.68
2022-12-18T09:00:38.254Z,1030.71
2022-12-18T09:01:38.320Z,1030.73
2022-12-18T09:02:38.324Z,1030.75
2022-12-18T09:03:38.666Z,1030.76
2022-12-18T09:04:38.235Z,1030.77
2022-12-18T09:05:38.205Z,1030.78
2022-12-18T09:06:38.198Z,1030.78
2022-12-18T09:07:38.190Z,1030.78
2022-12-18T09:08:38.505Z,1030.79
2022-12-18T09:09:38.185Z,1030.78
2022-12-18T09:10:43.176Z,1030.78
2022-12-18T09:11:38.153Z,1030.79
2022-12-18T09:12:38.136Z,1030.77
2022-12-18T09:13:38.540Z,1030.79
2022-12-18T09:14:38.114Z,1030.80
2022-12-18T09:15:38.114Z,1030.81
2022-12-18T09:16:38.144Z,1030.82
2022-12-18T09:17:38.089Z,1030.83
2022-12-18T09:18:38.557Z,1030.84
2022-12-18T09:19:38.085Z,1030.82
2022-12-18T09:20:38.060Z,1030.82
2022-12-18T09:21:38.071Z,1030.81
2022-12-18T09:22:38.057Z,1030.83
2022-12-18T09:23:38.065Z,1030.86
2022-12-18T09:24:38.024Z,1030.88
2022-12-18T09:25:38.021Z,1030.90
2022-12-18T09:26:38.122Z,1030.89
2022-12-18T09:27:38.016Z,1030.93
2022-12-18T09:28:38.445Z,1030.93
2022-12-18T09:29:37.992Z,1030.94
2022-12-18T09:30:38.004Z,1030.93
2022-12-18T09:31:38.024Z,1030.93
2022-12-18T09:32:37.937Z,1030.94
2022-12-18T09:33:37.958Z,1030.94
2022-12-18T09:34:37.920Z,1030.93
2022-12-18T09:35:37.914Z,1030.92
2022-12-18T09:36:37.911Z,1030.92
2022-12-18T09:37:37.897Z,1030.90
2022-12-18T09:38:38.235Z,1030.89
2022-12-18T09:39:37.878Z,1030.89
2022-12-18T09:40:37.877Z,1030.88
2022-12-18T09:41:37.873Z,1030.87
2022-12-18T09:42:37.856Z,1030.85
2022-12-18T09:43:37.875Z,1030.81
2022-12-18T09:44:44.705Z,1030.78
2022-12-18T09:45:37.851Z,1030.74
2022-12-18T09:46:37.862Z,1030.70
2022-12-18T09:47:37.824Z,1030.68
2022-12-18T09:48:38.187Z,1030.66
2022-12-18T09:49:37.817Z,1030.65
2022-12-18T09:50:37.763Z,1030.64
2022-12-18T09:51:37.777Z,1030.62
2022-12-18T09:52:37.764Z,1030.61
2022-12-18T09:53:37.780Z,1030.57
2022-12-18T09:54:37.720Z,1030.58
2022-12-18T09:55:37.801Z,1030.58
2022-12-18T09:56:37.711Z,1030.57
2022-12-18T09:57:37.712Z,1030.58
2022-12-18T09:58:38.186Z,1030.56
2022-12-18T09:59:37.690Z,1030.55
2022-12-18T10:00:37.697Z,1030.53
2022-12-18T10:01:44.020Z,1030.49
2022-12-18T10:02:37.803Z,1030.43
2022-12-18T10:03:37.669Z,1030.40
2022-12-18T10:04:37.801Z,1030.35
2022-12-18T10:05:37.663Z,1030.36
2022-12-18T10:06:37.637Z,1030.33
2022-12-18T10:07:37.615Z,1030.31
2022-12-18T10:08:37.889Z,1030.29
2022-12-18T10:09:37.640Z,1030.27
2022-12-18T10:10:37.602Z,1030.23
2022-12-18T10:11:37.574Z,1030.20
2022-12-18T10:12:37.563Z,1030.16
2022-12-18T10:13:37.654Z,1030.15
2022-12-18T10:14:37.557Z,1030.14
2022-12-18T10:15:37.637Z,1030.13
2022-12-18T10:16:37.512Z,1030.15
2022-12-18T10:17:37.519Z,1030.16
2022-12-18T10:18:37.740Z,1030.18
2022-12-18T10:19:37.490Z,1030.20
2022-12-18T10:20:37.476Z,1030.23
2022-12-18T10:21:37.484Z,1030.22
2022-12-18T10:22:37.460Z,1030.22
2022-12-18T10:23:37.476Z,1030.24
2022-12-18T10:24:37.444Z,1030.23
2022-12-18T10:25:37.432Z,1030.22
2022-12-18T10:26:37.420Z,1030.23
2022-12-18T10:27:37.414Z,1030.22
2022-12-18T10:28:37.774Z,1030.21
2022-12-18T10:29:37.394Z,1030.21
2022-12-18T10:30:37.383Z,1030.22
2022-12-18T10:31:37.474Z,1030.23
2022-12-18T10:32:37.358Z,1030.21
2022-12-18T10:33:37.359Z,1030.20
2022-12-18T10:34:37.393Z,1030.16
2022-12-18T10:35:37.334Z,1030.16
2022-12-18T10:36:37.323Z,1030.14
2022-12-18T10:37:37.322Z,1030.15
2022-12-18T10:38:37.448Z,1030.15
2022-12-18T10:39:37.313Z,1030.11
2022-12-18T10:40:37.316Z,1030.11
2022-12-18T10:41:37.277Z,1030.12
2022-12-18T10:42:37.344Z,1030.09
2022-12-18T10:43:37.262Z,1030.08
2022-12-18T10:44:37.309Z,1030.06
2022-12-18T10:45:37.292Z,1030.03
2022-12-18T10:46:37.302Z,1030.02
2022-12-18T10:47:37.216Z,1030.01
2022-12-18T10:48:37.515Z,1030.00
2022-12-18T10:49:37.215Z,1029.96
2022-12-18T10:51:09.138Z,1029.97
2022-12-18T10:51:37.192Z,1029.96
2022-12-18T10:52:42.043Z,1029.95
2022-12-18T10:53:37.182Z,1029.96
2022-12-18T10:54:37.170Z,1029.95
2022-12-18T10:55:37.160Z,1029.95
2022-12-18T10:56:37.128Z,1029.94
2022-12-18T10:57:37.128Z,1029.93
2022-12-18T10:58:37.116Z,1029.90
2022-12-18T10:59:37.142Z,1029.86
2022-12-18T11:00:37.107Z,1029.84
2022-12-18T11:01:37.199Z,1029.83
2022-12-18T11:02:37.319Z,1029.79
2022-12-18T11:03:37.179Z,1029.79
2022-12-18T11:04:37.080Z,1029.79
2022-12-18T11:05:37.054Z,1029.77
2022-12-18T11:06:37.037Z,1029.80
2022-12-18T11:07:37.033Z,1029.81
2022-12-18T11:08:37.044Z,1029.80
2022-12-18T11:09:37.060Z,1029.81
2022-12-18T11:10:37.001Z,1029.79
2022-12-18T11:11:37.000Z,1029.79
2022-12-18T11:12:36.999Z,1029.76
2022-12-18T11:13:36.967Z,1029.79
2022-12-18T11:14:38.336Z,1029.81
2022-12-18T11:15:37.040Z,1029.79
2022-12-18T11:16:37.039Z,1029.80
2022-12-18T11:17:36.937Z,1029.80
2022-12-18T11:18:36.945Z,1029.76
2022-12-18T11:19:36.933Z,1029.75
2022-12-18T11:20:36.946Z,1029.74
2022-12-18T11:21:36.918Z,1029.73
2022-12-18T11:22:36.884Z,1029.70
2022-12-18T11:23:36.911Z,1029.68
2022-12-18T11:24:36.884Z,1029.66
2022-12-18T11:25:36.851Z,1029.65
2022-12-18T11:26:36.853Z,1029.68
2022-12-18T11:27:36.829Z,1029.70
2022-12-18T11:28:36.841Z,1029.73
2022-12-18T11:29:40.637Z,1029.74
2022-12-18T11:30:36.851Z,1029.76
2022-12-18T11:31:36.931Z,1029.73
2022-12-18T11:32:36.791Z,1029.74
2022-12-18T11:33:36.785Z,1029.73
2022-12-18T11:34:36.788Z,1029.76
2022-12-18T11:35:36.781Z,1029.80
2022-12-18T11:36:36.735Z,1029.82
2022-12-18T11:37:36.766Z,1029.88
2022-12-18T11:38:36.734Z,1029.89
2022-12-18T11:39:36.768Z,1029.89
2022-12-18T11:40:41.094Z,1029.88
2022-12-18T11:41:36.698Z,1029.88
2022-12-18T11:42:36.704Z,1029.84
2022-12-18T11:43:36.696Z,1029.82
2022-12-18T11:44:36.699Z,1029.81
2022-12-18T11:45:36.671Z,1029.79
2022-12-18T11:46:36.669Z,1029.79
2022-12-18T11:47:36.638Z,1029.77
2022-12-18T11:48:36.639Z,1029.79
2022-12-18T11:49:36.682Z,1029.79
2022-12-18T11:50:36.622Z,1029.80
2022-12-18T11:51:36.598Z,1029.82
2022-12-18T11:52:36.595Z,1029.84
2022-12-18T11:53:36.593Z,1029.85
2022-12-18T11:54:36.604Z,1029.87
2022-12-18T11:55:36.585Z,1029.89
2022-12-18T11:56:36.547Z,1029.93
2022-12-18T11:57:36.588Z,1029.96
2022-12-18T11:58:36.572Z,1030.00
2022-12-18T11:59:36.577Z,1030.04
2022-12-18T12:00:36.527Z,1030.06
2022-12-18T12:01:42.100Z,1030.05
2022-12-18T12:02:36.720Z,1030.04
2022-12-18T12:03:36.606Z,1030.02
2022-12-18T12:04:36.581Z,1030.02
2022-12-18T12:05:36.468Z,1030.01